ADDS METAR Data

Data at: 1828 UTC 20 Jul 2018

METAR for:KTAN (Taunton Muni, MA, US)
Text:KTAN 201752Z AUTO 10007KT 070V130 10SM CLR 30/12 A3015 RMK AO2 SLP209 T03000122 10300 20217 57008
Temperature: 30.0°C ( 86°F)
Dewpoint: 12.2°C ( 54°F) [RH = 33%]
Pressure (altimeter):30.15 inches Hg (1021.1 mb) [Sea level pressure: 1020.9 mb]
Winds:from the E (100 degrees) at 8 MPH (7 knots; 3.6 m/s)
Visibility:10 or more sm (16+ km)
Ceiling:at least 12,000 feet AGL
Clouds:sky clear below 12,000 feet AGL
QC Flag:automated observation with no human augmentation